Time;durP1;ratioP1;P1;durP2;ratioP2;P2;SDS_P1;SDS_P2;PMS_P1;PMS_P2;Temp;Humidity;BMP_temperature;BMP_pressure;BME280_temperature;BME280_humidity;BME280_pressure;Samples;Min_cycle;Max_cycle;Signal;HPM_P1;HPM_P2
2021/05/17 00:02:04;;;;;;;2.85;1.42;;;9.20;99.90;;;;;;6681749;88;20175;-76
2021/05/17 00:12:06;;;;;;;3.28;1.42;;;9.10;99.90;;;;;;6681511;88;20253;-75
2021/05/17 00:22:07;;;;;;;2.30;1.40;;;9.10;99.90;;;;;;6680963;88;20695;-76
2021/05/17 00:32:08;;;;;;;3.05;0.90;;;9.20;99.90;;;;;;6678359;88;20688;-75
2021/05/17 00:42:10;;;;;;;2.42;0.55;;;9.40;99.90;;;;;;6686935;88;20210;-76
2021/05/17 00:52:12;;;;;;;1.92;0.50;;;9.60;99.90;;;;;;6687695;88;20191;-76
2021/05/17 01:02:12;;;;;;;3.12;0.57;;;9.70;99.90;;;;;;6686992;88;20213;-75
2021/05/17 01:12:15;;;;;;;1.77;0.60;;;9.80;99.90;;;;;;6689810;88;20198;-75
2021/05/17 01:22:22;;;;;;;1.95;0.75;;;9.70;99.90;;;;;;6693883;88;20184;-75
2021/05/17 01:32:23;;;;;;;2.08;0.90;;;9.70;99.90;;;;;;6691561;88;20232;-75
2021/05/17 01:42:24;;;;;;;1.70;0.70;;;9.80;99.90;;;;;;6689730;88;20206;-75
2021/05/17 01:52:26;;;;;;;2.17;0.80;;;9.90;99.90;;;;;;6688812;88;20671;-75
2021/05/17 02:02:27;;;;;;;3.85;1.00;;;9.90;99.90;;;;;;6689894;88;20262;-74
2021/05/17 02:12:31;;;;;;;2.10;0.80;;;9.90;99.90;;;;;;6684545;88;21015;-74
2021/05/17 02:22:32;;;;;;;3.50;0.80;;;9.90;99.90;;;;;;6685519;88;20187;-75
2021/05/17 02:32:33;;;;;;;3.23;1.13;;;9.90;99.90;;;;;;6684026;88;20270;-75
2021/05/17 02:42:34;;;;;;;2.97;1.10;;;9.90;99.90;;;;;;6685843;88;20525;-74
2021/05/17 02:52:35;;;;;;;3.25;0.95;;;9.80;99.90;;;;;;6682523;88;20203;-74
2021/05/17 03:03:07;;;;;;;2.90;1.10;;;9.90;99.90;;;;;;6681283;88;20795;-75
2021/05/17 03:13:11;;;;;;;3.40;1.17;;;9.90;99.90;;;;;;6682614;88;20517;-75
2021/05/17 03:23:15;;;;;;;3.85;1.35;;;9.80;99.90;;;;;;6682838;88;20240;-74
2021/05/17 03:33:16;;;;;;;3.85;1.40;;;9.70;99.90;;;;;;6679601;88;20769;-74
2021/05/17 03:43:17;;;;;;;4.10;1.30;;;9.50;99.90;;;;;;6681091;88;20191;-74
2021/05/17 03:53:17;;;;;;;4.57;1.48;;;9.50;99.90;;;;;;6682933;88;20242;-76
2021/05/17 04:03:20;;;;;;;2.65;1.10;;;9.40;99.90;;;;;;6684994;88;20175;-75
2021/05/17 04:13:27;;;;;;;2.33;1.00;;;9.40;99.90;;;;;;6684178;88;20220;-75
2021/05/17 04:23:29;;;;;;;2.08;1.00;;;9.60;99.90;;;;;;6686149;88;20203;-75
2021/05/17 04:33:29;;;;;;;2.55;1.20;;;9.80;99.90;;;;;;6686157;88;20185;-75
2021/05/17 04:43:30;;;;;;;3.30;1.05;;;9.70;99.90;;;;;;6682533;88;20200;-75
2021/05/17 04:53:30;;;;;;;2.37;1.00;;;10.00;99.90;;;;;;6682225;88;20194;-75
2021/05/17 05:03:31;;;;;;;2.90;1.05;;;10.30;99.90;;;;;;6678598;88;20219;-75
2021/05/17 05:13:32;;;;;;;2.62;1.00;;;10.60;99.90;;;;;;6678309;88;20435;-75
2021/05/17 05:23:32;;;;;;;3.35;1.00;;;10.80;99.90;;;;;;6678874;88;20645;-75
2021/05/17 05:33:33;;;;;;;4.22;1.08;;;10.90;99.90;;;;;;6680771;88;20204;-75
2021/05/17 05:43:33;;;;;;;2.30;0.82;;;11.20;99.90;;;;;;6685824;88;20318;-75
2021/05/17 05:53:34;;;;;;;1.92;0.75;;;11.30;99.90;;;;;;6683849;88;20202;-75
2021/05/17 06:03:34;;;;;;;4.10;1.00;;;11.30;99.90;;;;;;6685231;88;20198;-75
2021/05/17 06:13:37;;;;;;;3.80;0.60;;;11.60;99.90;;;;;;6685349;88;20195;-75
2021/05/17 06:23:39;;;;;;;3.75;0.90;;;11.80;99.90;;;;;;6686871;88;20187;-75
2021/05/17 06:33:42;;;;;;;2.40;0.77;;;11.90;99.90;;;;;;6688088;88;20323;-75
2021/05/17 06:43:42;;;;;;;4.82;0.62;;;12.20;99.90;;;;;;6686887;88;20253;-75
2021/05/17 06:53:44;;;;;;;1.33;0.60;;;12.20;99.90;;;;;;6683922;88;20716;-75
2021/05/17 07:03:45;;;;;;;3.70;0.70;;;12.40;99.90;;;;;;6683791;88;20193;-75
2021/05/17 07:13:46;;;;;;;1.35;0.60;;;12.60;99.90;;;;;;6680617;88;20227;-76
2021/05/17 07:23:47;;;;;;;4.07;0.60;;;12.60;99.90;;;;;;6685370;88;20190;-76
2021/05/17 07:33:47;;;;;;;2.97;0.50;;;13.20;99.90;;;;;;6684846;88;20309;-76
2021/05/17 07:43:48;;;;;;;4.07;0.60;;;13.60;99.90;;;;;;6687488;88;20582;-75
2021/05/17 07:53:48;;;;;;;2.25;0.55;;;13.70;99.90;;;;;;6687063;88;20202;-77
2021/05/17 08:03:50;;;;;;;1.15;0.30;;;14.00;99.90;;;;;;6689213;88;20195;-76
2021/05/17 08:13:50;;;;;;;3.08;0.45;;;14.50;99.90;;;;;;6688823;88;20182;-76
2021/05/17 08:23:56;;;;;;;1.00;0.30;;;15.00;99.90;;;;;;6688126;88;20208;-76
2021/05/17 08:33:56;;;;;;;;;;;14.80;99.90;;;;;;6718973;77;20243;-77
2021/05/17 08:43:58;;;;;;;1.58;0.50;;;14.70;99.90;;;;;;6721359;88;20241;-78
2021/05/17 08:54:02;;;;;;;2.50;0.40;;;14.80;99.90;;;;;;6726520;88;20612;-78
2021/05/17 09:04:05;;;;;;;2.42;0.60;;;14.50;99.90;;;;;;6734228;88;20171;-78
2021/05/17 09:14:13;;;;;;;1.95;0.28;;;15.00;99.90;;;;;;6737894;88;20200;-77
2021/05/17 09:24:39;;;;;;;3.25;0.47;;;14.90;99.90;;;;;;6734062;88;20867;-78
2021/05/17 09:34:40;;;;;;;2.20;0.47;;;14.40;99.90;;;;;;6733669;88;20202;-78
2021/05/17 09:44:44;;;;;;;1.65;0.43;;;13.60;99.90;;;;;;6735923;88;20704;-80
2021/05/17 09:54:59;;;;;;;1.63;0.50;;;14.80;99.90;;;;;;6724670;88;20189;-77
2021/05/17 10:05:20;;;;;;;1.30;0.40;;;15.90;99.90;;;;;;6729330;88;20228;-79
2021/05/17 10:15:22;;;;;;;0.98;0.30;;;16.50;99.90;;;;;;6732266;88;20792;-77
2021/05/17 10:25:31;;;;;;;1.70;0.40;;;17.30;99.90;;;;;;6730603;88;20190;-77
2021/05/17 10:35:45;;;;;;;0.60;0.30;;;18.10;99.90;;;;;;6720179;88;20178;-77
2021/05/17 10:55:57;;;;;;;0.95;0.30;;;16.50;99.90;;;;;;6713202;88;20222;-76
2021/05/17 11:06:03;;;;;;;1.80;0.53;;;16.50;99.90;;;;;;6724585;88;20184;-76
2021/05/17 11:16:08;;;;;;;0.70;0.30;;;15.60;99.90;;;;;;6722427;88;20282;-76
2021/05/17 11:26:13;;;;;;;2.55;0.40;;;13.50;99.90;;;;;;6716941;88;20306;-75
2021/05/17 11:36:18;;;;;;;0.37;0.13;;;13.30;99.90;;;;;;6716626;88;20683;-76
2021/05/17 11:46:21;;;;;;;1.37;0.30;;;13.60;99.90;;;;;;6718452;88;20206;-75
2021/05/17 11:56:40;;;;;;;2.28;0.30;;;13.50;99.90;;;;;;6716907;88;20489;-76
2021/05/17 12:06:53;;;;;;;1.45;0.30;;;14.00;99.90;;;;;;6717182;88;20328;-75
2021/05/17 12:17:05;;;;;;;0.77;0.30;;;15.20;99.90;;;;;;6715511;88;20185;-75
2021/05/17 12:27:15;;;;;;;0.60;0.30;;;16.30;99.90;;;;;;6717021;88;20239;-75
2021/05/17 12:37:17;;;;;;;1.52;0.30;;;15.50;99.90;;;;;;6721202;88;20210;-76
2021/05/17 12:47:17;;;;;;;1.23;0.30;;;15.60;99.90;;;;;;6727323;88;20188;-76
2021/05/17 12:57:18;;;;;;;0.80;0.20;;;15.80;99.90;;;;;;6720297;88;20223;-76
2021/05/17 13:07:18;;;;;;;0.88;0.40;;;15.30;99.90;;;;;;6724211;88;20194;-76
2021/05/17 13:17:19;;;;;;;1.37;0.40;;;15.90;99.90;;;;;;6719368;88;20216;-77
2021/05/17 13:37:39;;;;;;;1.50;0.45;;;16.20;99.90;;;;;;6719940;88;20557;-77
2021/05/17 13:47:41;;;;;;;2.35;0.50;;;15.90;99.90;;;;;;6721205;88;20189;-77
2021/05/17 13:57:42;;;;;;;3.33;0.90;;;15.60;99.90;;;;;;6722770;88;20660;-77
2021/05/17 14:07:42;;;;;;;3.20;1.00;;;15.30;99.90;;;;;;6722952;88;20220;-78
2021/05/17 14:17:43;;;;;;;3.13;1.37;;;13.40;99.90;;;;;;6723096;88;20701;-76
2021/05/17 14:37:47;;;;;;;3.72;1.40;;;15.00;99.90;;;;;;6676544;88;20234;-76
2021/05/17 14:47:48;;;;;;;5.15;1.70;;;15.00;99.90;;;;;;6680271;88;20233;-78
2021/05/17 14:57:49;;;;;;;4.50;2.03;;;13.70;99.90;;;;;;6690501;88;20243;-79
2021/05/17 15:07:52;;;;;;;7.15;1.58;;;13.90;99.90;;;;;;6699493;88;20187;-78
2021/05/17 15:17:56;;;;;;;3.15;1.73;;;14.60;99.90;;;;;;6685740;88;20192;-80
2021/05/17 15:27:57;;;;;;;5.82;1.60;;;15.00;99.90;;;;;;6683237;88;21203;-76
2021/05/17 15:37:58;;;;;;;6.53;1.77;;;15.50;99.90;;;;;;6681661;88;20270;-77
2021/05/17 15:47:58;;;;;;;4.70;1.40;;;16.50;99.90;;;;;;6681348;88;20206;-78
2021/05/17 15:58:00;;;;;;;6.32;2.25;;;16.10;99.90;;;;;;6682674;88;20654;-78
2021/05/17 16:08:01;;;;;;;4.53;1.62;;;16.20;99.90;;;;;;6685063;88;20214;-78
2021/05/17 16:18:18;;;;;;;5.80;1.85;;;16.30;99.90;;;;;;6685889;88;20186;-78
2021/05/17 16:28:18;;;;;;;6.32;1.85;;;15.50;99.90;;;;;;6685084;88;20244;-77
2021/05/17 16:38:19;;;;;;;9.33;2.30;;;15.30;99.90;;;;;;6685221;88;20203;-78
2021/05/17 16:48:20;;;;;;;7.65;2.08;;;15.70;99.90;;;;;;6688396;88;20924;-79
2021/05/17 16:58:20;;;;;;;6.40;2.33;;;15.70;99.90;;;;;;6693212;88;20199;-79
2021/05/17 17:08:21;;;;;;;8.70;2.70;;;15.90;99.90;;;;;;6689953;88;20544;-79
2021/05/17 17:18:21;;;;;;;9.68;2.90;;;16.40;99.90;;;;;;6696690;88;20546;-79
2021/05/17 17:28:24;;;;;;;6.65;2.47;;;17.30;99.90;;;;;;6687984;88;20316;-78
2021/05/17 17:38:25;;;;;;;8.05;2.75;;;17.40;99.90;;;;;;6703609;88;20178;-78
2021/05/17 17:48:26;;;;;;;7.28;2.45;;;16.60;99.90;;;;;;6699379;88;20234;-77
2021/05/17 17:58:26;;;;;;;11.20;2.70;;;18.50;99.90;;;;;;6682440;88;20228;-76
2021/05/17 18:08:27;;;;;;;7.60;2.70;;;16.10;99.90;;;;;;6684282;88;20246;-78
2021/05/17 18:18:28;;;;;;;6.43;2.70;;;17.00;99.90;;;;;;6683855;88;20229;-77
2021/05/17 18:28:28;;;;;;;6.55;2.30;;;16.10;99.90;;;;;;6681227;88;20245;-76
2021/05/17 18:38:29;;;;;;;9.00;2.50;;;16.10;99.90;;;;;;6680916;88;20206;-77
2021/05/17 18:48:31;;;;;;;9.80;2.42;;;15.50;99.90;;;;;;6682661;88;20574;-77
2021/05/17 18:58:33;;;;;;;9.30;2.97;;;14.60;99.90;;;;;;6682920;88;20308;-76
2021/05/17 19:08:34;;;;;;;9.10;3.08;;;14.10;99.90;;;;;;6682736;88;20194;-77
2021/05/17 19:18:36;;;;;;;10.05;2.65;;;13.60;99.90;;;;;;6682295;88;20293;-77
2021/05/17 19:28:43;;;;;;;9.30;3.05;;;13.20;99.90;;;;;;6683078;88;20234;-79
2021/05/17 19:38:44;;;;;;;6.95;3.30;;;12.90;99.90;;;;;;6685269;88;20592;-76
2021/05/17 19:48:49;;;;;;;8.17;3.00;;;12.60;99.90;;;;;;6686395;88;20186;-77
2021/05/17 19:58:50;;;;;;;14.40;3.70;;;12.50;99.90;;;;;;6686024;88;20632;-77
2021/05/17 20:08:50;;;;;;;8.73;3.72;;;12.30;99.90;;;;;;6685038;88;20241;-78
2021/05/17 20:18:52;;;;;;;9.02;4.03;;;12.00;99.90;;;;;;6684750;88;20316;-78
2021/05/17 20:28:53;;;;;;;6.75;3.67;;;11.80;99.90;;;;;;6686396;88;21081;-78
2021/05/17 20:38:55;;;;;;;6.10;3.22;;;11.60;99.90;;;;;;6691441;88;20716;-78
2021/05/17 20:48:55;;;;;;;7.78;3.65;;;11.50;99.90;;;;;;6687553;88;20187;-78
2021/05/17 20:58:56;;;;;;;9.45;3.30;;;11.30;99.90;;;;;;6689673;88;20208;-78
2021/05/17 21:08:56;;;;;;;9.40;3.28;;;11.30;99.90;;;;;;6689036;88;20202;-78
2021/05/17 21:18:57;;;;;;;7.60;3.28;;;11.10;99.90;;;;;;6685025;88;20201;-77
2021/05/17 21:28:58;;;;;;;8.93;3.45;;;11.00;99.90;;;;;;6684162;88;20341;-78
2021/05/17 21:38:58;;;;;;;7.13;3.30;;;11.00;99.90;;;;;;6683541;88;20361;-77
2021/05/17 21:49:03;;;;;;;6.55;3.30;;;10.70;99.90;;;;;;6683888;88;20943;-77
2021/05/17 21:59:04;;;;;;;7.87;3.60;;;10.80;99.90;;;;;;6683811;88;20671;-77
2021/05/17 22:19:24;;;;;;;7.93;3.45;;;10.90;99.90;;;;;;6684762;88;20654;-78
2021/05/17 22:29:25;;;;;;;6.45;3.33;;;11.00;99.90;;;;;;6684845;88;20198;-77
2021/05/17 22:39:25;;;;;;;6.25;3.05;;;11.10;99.90;;;;;;6685204;88;20598;-78
2021/05/17 22:49:26;;;;;;;6.63;3.10;;;11.30;99.90;;;;;;6685254;88;20210;-78
2021/05/17 22:59:27;;;;;;;7.20;2.92;;;11.20;99.90;;;;;;6684002;88;20222;-77
2021/05/17 23:09:27;;;;;;;7.50;2.75;;;11.20;99.90;;;;;;6683183;88;20229;-77
2021/05/17 23:19:28;;;;;;;6.75;2.60;;;11.20;99.90;;;;;;6684198;88;20221;-77
2021/05/17 23:29:29;;;;;;;4.90;2.50;;;11.10;99.90;;;;;;6684502;88;20213;-77
2021/05/17 23:39:29;;;;;;;10.13;3.30;;;11.20;99.90;;;;;;6683979;88;20225;-77
2021/05/17 23:49:30;;;;;;;5.50;3.35;;;11.20;99.90;;;;;;6683366;88;20258;-77
2021/05/17 23:59:30;;;;;;;7.47;3.20;;;11.20;99.90;;;;;;6683918;88;20220;-78
